x

Nantucket Sound (44020) Wave Buoy

4:50 - Tue 31st May 2016 All times are EDT. -4 hours from GMT.

  • Sig Wave height 1.0ft
  • Swell Direction
  • Peak Period 3s
  • Average Period 3s
  • Wind
    16mph, 18mph gusts
  • Sea Temp 59°f
  • Aire Temp 61°f
  • Sea Pressure 1013.7mb
  • Nantucket Sound
  • Nantucket Sound

More Historic Weather Station data

Upgrade to MSW Pro to gain access to the past 30 days of data for over 8000 Wavebouys and Weather Stations around the globe.

Join Pro

Comparision Forecast

View Surf forecast
   
mar 05/31 4:50 1ft 3s 3s 16 18 mph 1013.7mb 59f 61f
3:50 1ft 3s 3s 16 18 mph 1013.6mb 59f 61f
2:50 1.3ft 3s 3s 16 18 mph 1013.7mb 59f 61f
1:50 1.6ft 3s 3s 16 18 mph 1013.6mb 59f 62f
12:50 1.3ft 3s 3s 13 16 mph 1013.6mb 59f 61f
lun 05/30 11:50 1.3ft 3s 3s 13 18 mph 1014.3mb 59f 61f
10:50 1ft 3s 3s 16 20 mph 1014.5mb 59f 61f
9:50 1.3ft 4s 3s 13 16 mph 1014.6mb 59f 61f
8:50 1.3ft 3s 3s 13 16 mph 1014.2mb 60f 61f
7:50 1.6ft 3s 3s 16 18 mph 1013.8mb 60f 62f
6:50 1.6ft 3s 3s 16 18 mph 1013.9mb 60f 61f
5:50 1.6ft 3s 3s 20 25 mph 1013.9mb 60f 62f
4:50 1.6ft 3s 3s 18 22 mph 1014.3mb 59f 62f
2:50 2ft 3s 3s 18 20 mph 1014.5mb 59f 63f
1:50 2.5ft 3s 3s 20 22 mph 1015mb 59f 64f
12:50 2ft 3s 3s 20 22 mph 1015.4mb 59f 63f
11:50 2ft 3s 3s 20 22 mph 1015.6mb 59f 64f
10:50 1.6ft 3s 3s 20 25 mph 1016mb 59f 63f
9:50 1.6ft 3s 3s 16 20 mph 1016.2mb 59f 63f
8:50 1.6ft 3s 3s 18 20 mph 1016.1mb 59f 62f
7:50 1.6ft 3s 3s 18 22 mph 1016.1mb 59f 62f
6:50 1.3ft 3s 3s 16 18 mph 1016.2mb 59f 63f
5:50 1ft 5s 5s 11 13 mph 1016.6mb 59f 62f
4:50 0.7ft  -  5s 7 9 mph 1017.2mb 59f 61f
3:50 0.7ft  -  4s 7
mph
1017.8mb 59f 61f
2:50 0.7ft  -  4s 4 7 mph 1018.1mb 58f 57f
1:50 0.7ft  -  4s 4
mph
1018.9mb 58f 57f
12:50 0.7ft  -  4s 9
mph
1019.6mb 58f 57f
dom 05/29 11:50 0.7ft  -  4s 7 9 mph 1020.3mb 58f 56f
10:50 0.7ft  -  4s 7
mph
1020.7mb 58f 56f
9:50 0.7ft  -  4s 9
mph
1021mb 59f 58f
8:50 1ft 6s 4s 9 11 mph 1020.9mb 59f 59f
6:50 1ft 6s 3s 4 7 mph 1020.6mb 60f 60f
5:50 0.7ft  -  4s 4 7 mph 1021mb 60f 61f
4:50 0.7ft  -  3s 4 7 mph 1021mb 60f 61f
3:50 1ft 3s 3s 4 7 mph 1021.2mb 59f 61f
2:50 1ft 3s 3s 7 9 mph 1021.6mb 59f 61f
1:50 0.7ft  -  3s 9 11 mph 1021.7mb 61f 61f
12:50 0.7ft  -  3s 2 4 mph 1021.9mb 61f 62f
11:50 0.7ft  -  3s 4
mph
1021.7mb 60f 61f
10:50 0.7ft  -  3s 2
mph
1021.8mb 59f 61f
9:50 0.7ft  -  3s 2
mph
1021.6mb 58f 61f
8:50 0.7ft  -  3s 4
mph
1021.5mb 58f 61f
7:50 1ft 3s 3s 9
mph
1021.1mb 58f 61f
6:50 1ft 3s 3s 11 13 mph 1020.4mb 58f 61f
5:50 1.3ft 3s 3s 13 16 mph 1020.1mb 59f 61f
4:50 1.3ft 3s 3s 11 13 mph 1020mb 59f 61f
3:50 1.3ft 3s 3s 18 20 mph 1019.6mb 58f 61f
2:50 1.3ft 3s 3s 18 20 mph 1019.7mb 58f 62f
1:50 1.3ft 3s 3s 18 20 mph 1020.1mb 58f 61f
12:50 1.3ft 3s 3s 16 18 mph 1020.3mb 58f 62f
sáb 05/28 11:50 1.3ft 3s 3s 16
mph
1020.3mb 58f 61f
10:50 1.3ft 4s 3s 16 18 mph 1020.2mb 58f 61f
9:50 1.3ft 3s 3s 13 16 mph 1020.3mb 58f 62f
8:50 1.3ft 3s 3s 13 16 mph 1019.8mb 58f 61f
7:50 1.3ft 4s 3s 13 16 mph 1019.8mb 58f 61f
6:50 1.3ft 3s 3s 16 18 mph 1019.3mb 59f 62f
5:50 1.6ft 3s 3s 16 20 mph 1019.1mb 59f 62f
4:50 1.6ft 3s 3s 16 18 mph 1019.1mb 59f 61f
3:50 1.6ft 3s 3s 18 22 mph 1019.2mb 59f 61f
2:50 2ft 3s 3s 20 25 mph 1019.2mb 58f 61f
1:50 2ft 3s 3s 18 22 mph 1019.5mb 58f 61f
12:50 2ft 3s 3s 20 22 mph 1019.6mb 58f 61f
11:50 2ft 3s 3s 20 25 mph 1019.5mb 57f 61f
10:50 2ft 3s 3s 18 20 mph 1019.8mb 57f 60f
9:50 2ft 3s 3s 20 22 mph 1019.5mb 57f 61f
8:50 1.3ft 3s 3s 18 22 mph 1019.5mb 57f 60f
7:50 1.6ft 4s 3s 16 18 mph 1019.7mb 57f 60f
6:50 2ft 4s 4s 13 18 mph 1019.5mb 57f 62f
5:50 2ft 3s 3s 31 43 mph 1018.4mb 58f 64f
4:50 2ft 3s 3s 18 20 mph 1018.4mb 58f 60f
3:50 2ft 3s 3s 20 25 mph 1018.5mb 58f 61f
2:50 1ft 2s 3s 20 22 mph 1018.6mb 58f 61f
1:50 1ft 3s 3s 16 18 mph 1019.3mb 57f 60f
12:50 1ft 2s 3s 13 16 mph 1019.7mb 57f 60f
vie 05/27 11:50 1.3ft 2s 3s 16 18 mph 1019.4mb 57f 60f
10:50 1.3ft 2s 3s 13 16 mph 1019.4mb 57f 60f
9:50 1.3ft 3s 3s 18 20 mph 1019mb 57f 60f
8:50 1.3ft 3s 3s 18 20 mph 1018.5mb 57f 60f
7:50 1.3ft 3s 3s 16 18 mph 1018.6mb 57f 60f
6:50 1.3ft 3s 3s 13 18 mph 1018.8mb 57f 60f
5:50 1.3ft 3s 3s 16 18 mph 1018.4mb 58f 61f
4:50 1ft 3s 3s 13 16 mph 1018.6mb 58f 60f
3:50 1.3ft 3s 3s 16 18 mph 1018.8mb 58f 60f
2:50 1.3ft 4s 3s 16 20 mph 1018.8mb 58f 61f
1:50 0.7ft  -  3s 16 18 mph 1019.2mb 58f 61f
12:50 0.7ft  -  3s 13 16 mph 1019.6mb 57f 60f
11:50 0.7ft  -  3s 13 16 mph 1020mb 56f 60f
10:50 0.7ft  -  3s 13
mph
1020mb 56f 59f